Ship Status Report: callsign MVGF4

sailwx.info

Track history (hours):
 
Tides and Currents Weather Stations Pressure Air Temp Water Temp Dewpoint Dewpoint Depression Visibility Wind Speed Wind Dir Waves Ship Positions

Callsign MVGF4 (name unknown)

Last reported at 2018-Feb-18 23:00 UTC. Time now 2018-Feb-19 00:04 UTC.
Position N 58°18' W 001°42'.

Wind from 140

Air temperature 6.1 ° C
Visibility: greater than 10.8 NM
Dewpoint 4.2 ° C

Date/timePositionNaut miles runAvg speedWind from/ knotsBaromVisibWave heightAir tempDewpointWater temp
2018-Feb-18 23:00N 58°18' W 001°42'0 0.0 140 10.8 6.1 4.2
2018-Feb-18 22:00N 58°18' W 001°42'0 0.0 140 10.8 6.2 3.9
2018-Feb-18 21:00N 58°18' W 001°42'0 0.0 140 10.8 5.8 3.5
2018-Feb-18 20:00N 58°18' W 001°42'0 0.0 150 10.8 5.8 3.2
2018-Feb-18 19:00N 58°18' W 001°42'0 0.0 170 10.8 6.0 3.1
2018-Feb-18 18:00N 58°18' W 001°42'0 0.0 170 10.8 6.3 3.1
2018-Feb-18 17:00N 58°18' W 001°42'0 0.0 170 10.8 6.0 2.8
2018-Feb-18 16:00N 58°18' W 001°42'0 0.0 160 10.8 6.0 2.6
2018-Feb-18 15:00N 58°18' W 001°42'0 0.0 170 10.8 6.0 2.6
2018-Feb-18 14:00N 58°18' W 001°42'0 0.0 170 10.8 6.4 2.8
2018-Feb-18 13:00N 58°18' W 001°42'0 0.0 170 10.8 6.6 3.3
2018-Feb-18 12:00N 58°18' W 001°42'0 0.0 190 10.8 6.0 3.0
2018-Feb-18 11:00N 58°18' W 001°42'0 0.0 180 10.8 6.1 3.2
2018-Feb-18 10:00N 58°18' W 001°42'0 0.0 180 10.8 5.8 3.1
2018-Feb-18 09:00N 58°18' W 001°42'0 0.0 190 10.8 5.1 2.8
2018-Feb-18 08:00N 58°18' W 001°42'0 0.0 200 10.8 5.3 2.9
2018-Feb-18 07:00N 58°18' W 001°42'0 0.0 250 10.8 5.2 2.8
2018-Feb-18 06:00N 58°18' W 001°42'0 0.0 240 10.8 5.5 3.0
2018-Feb-18 05:00N 58°18' W 001°42'0 0.0 260 10.8 5.4 2.7
2018-Feb-18 04:00N 58°18' W 001°42'0 0.0 260 10.8 5.4 2.7
2018-Feb-18 03:00N 58°18' W 001°42'0 0.0 250 10.8 5.5 2.5
2018-Feb-18 02:00N 58°18' W 001°42'0 0.0 260 10.8 5.5 2.4
2018-Feb-18 01:00N 58°18' W 001°42'0 0.0 270 10.8 5.5 2.1
2018-Feb-18 00:00N 58°18' W 001°42'0 0.0 260 10.8 5.7 2.2
2018-Feb-17 23:00N 58°18' W 001°42'0 0.0 260 10.8 5.7 2.1
2018-Feb-17 22:00N 58°18' W 001°42'0 0.0 260 10.8 5.9 2.3
2018-Feb-17 21:00N 58°18' W 001°42'0 0.0 260 10.8 6.0 2.1
2018-Feb-17 20:00N 58°18' W 001°42'0 0.0 250 10.8 6.2 2.1
2018-Feb-17 19:00N 58°18' W 001°42'0 0.0 250 10.8 6.4 2.5
2018-Feb-17 18:00N 58°18' W 001°42'0 0.0 250 10.8 6.2 2.3
2018-Feb-17 17:00N 58°18' W 001°42'0 0.0 240 10.8 6.1 2.3
2018-Feb-17 16:00N 58°18' W 001°42'0 0.0 260 10.8 6.4 2.7
2018-Feb-17 15:00N 58°18' W 001°42'0 0.0 260 10.8 6.3 2.9
2018-Feb-17 14:00N 58°18' W 001°42'0 0.0 240 10.8 6.2 2.9
2018-Feb-17 13:00N 58°18' W 001°42'0 0.0 230 10.8 6.2 2.9
2018-Feb-17 12:00N 58°18' W 001°42'0 0.0 200 10.8 6.0 3.0
2018-Feb-17 11:00N 58°18' W 001°42'0 0.0 190 10.8 5.7 3.0
2018-Feb-17 10:00N 58°18' W 001°42'0 0.0 190 10.8 5.9 3.3
2018-Feb-17 09:00N 58°18' W 001°42'0 0.0 220 10.8 6.0 3.4
2018-Feb-17 08:00N 58°18' W 001°42'0 0.0 210 10.8 5.7 3.2
2018-Feb-17 07:00N 58°18' W 001°42'0 0.0 210 10.8 5.7 3.0
2018-Feb-17 06:00N 58°18' W 001°42'0 0.0 210 10.8 5.9 3.1
2018-Feb-17 05:00N 58°18' W 001°42'0 0.0 230 10.8 6.0 3.2
2018-Feb-17 04:00N 58°18' W 001°42'0 0.0 200 10.8 6.1 3.2
2018-Feb-17 03:00N 58°18' W 001°42'0 0.0 200 10.8 6.2 3.2
2018-Feb-17 02:00N 58°18' W 001°42'0 0.0 190 10.8 6.5 3.1
2018-Feb-17 01:00N 58°18' W 001°42'0 0.0 190 10.8 6.5 3.0
2018-Feb-17 00:00N 58°18' W 001°42'0 0.0 190 10.8 6.7 3.2
2018-Feb-16 23:00N 58°18' W 001°42'0 0.0 180 10.8 6.9 3.3
2018-Feb-16 22:00N 58°18' W 001°42'0 0.0 190 10.8 6.8 3.3
2018-Feb-16 21:00N 58°18' W 001°42'0 0.0 200 10.8 6.6 3.0
2018-Feb-16 20:00N 58°18' W 001°42'0 0.0 210 10.8 6.3 2.6
2018-Feb-16 19:00N 58°18' W 001°42'0 0.0 210 10.8 6.2 2.5
2018-Feb-16 18:00N 58°18' W 001°42'0 0.0 220 10.8 6.5 2.7
2018-Feb-16 17:00N 58°18' W 001°42'0 0.0 180 10.8 6.5 2.6
2018-Feb-16 16:00N 58°18' W 001°42'0 0.0 220 10.8 6.5 2.4
2018-Feb-16 15:00N 58°18' W 001°42'0 0.0 240 10.8 6.2 1.9
2018-Feb-16 14:00N 58°18' W 001°42'0 0.0
2018-Feb-16 13:00N 58°18' W 001°42'0 0.0 240 10.8
2018-Feb-16 12:00N 58°18' W 001°42'0 0.0 240 10.8 5.9 2.1
2018-Feb-16 11:00N 58°18' W 001°42'0 0.0 240 10.8 5.8 2.2
2018-Feb-16 10:00N 58°18' W 001°42'0 0.0 240 10.8 5.3 1.8
2018-Feb-16 09:00N 58°18' W 001°42'0 0.0 250 10.8 5.3 1.7
2018-Feb-16 08:00N 58°18' W 001°42'0 0.0 240 10.8 5.0 1.8
2018-Feb-16 07:00N 58°18' W 001°42'0 0.0 250 10.8 5.1 1.9
2018-Feb-16 06:00N 58°18' W 001°42'0 0.0 250 10.8 5.0 1.9
2018-Feb-16 05:00N 58°18' W 001°42'0 0.0 250 10.8 5.1 2.0
2018-Feb-16 04:00N 58°18' W 001°42'0 0.0 250 10.8 5.1 2.0
2018-Feb-16 03:00N 58°18' W 001°42'0 0.0 250 10.8 5.1 2.3
2018-Feb-16 02:00N 58°18' W 001°42'0 0.0 250 10.8 5.4 2.4
2018-Feb-16 01:00N 58°18' W 001°42'0 0.0 250 10.8 5.5 2.5
2018-Feb-16 00:00N 58°18' W 001°42'0 0.0 250 10.8 5.6 2.5
2018-Feb-15 23:00N 58°18' W 001°42'0 0.0 250 10.8 5.8 2.6
2018-Feb-15 22:00N 58°18' W 001°42'0 0.0 250 10.8 5.8 2.5
2018-Feb-15 21:00N 58°18' W 001°42'0 0.0 260 10.8 5.8 2.4
2018-Feb-15 20:00N 58°18' W 001°42'0 0.0 250 10.8 6.0 2.6
2018-Feb-15 19:00N 58°18' W 001°42'0 0.0 250 10.8 6.1 2.5
2018-Feb-15 18:00N 58°18' W 001°42'0 0.0 240 10.8 6.1 2.5
2018-Feb-15 17:00N 58°18' W 001°42'0 0.0 240 10.8 6.0 2.4
2018-Feb-15 16:00N 58°18' W 001°42'0 0.0 230 2.2 6.1 2.2
2018-Feb-15 15:00N 58°18' W 001°42'0 0.0 220 10.8 5.8 2.0
2018-Feb-15 14:00N 58°18' W 001°42'0 0.0 230 10.8 6.0 2.3
2018-Feb-15 13:00N 58°18' W 001°42'0 0.0 240 10.8 6.0 2.2
2018-Feb-15 12:00N 58°18' W 001°42'0 0.0 220 10.8 5.7 1.6
2018-Feb-15 11:00N 58°18' W 001°42'0 0.0 220 10.8 5.3 1.2
2018-Feb-15 10:00N 58°18' W 001°42'0 0.0 220 10.8 4.9 0.8
2018-Feb-15 09:00N 58°18' W 001°42'0 0.0 220 10.8 4.9 0.9
2018-Feb-15 08:00N 58°18' W 001°42'0 0.0 200 10.8 5.0 1.2
2018-Feb-15 07:00N 58°18' W 001°42'0 0.0 210 10.8 5.1 1.4
2018-Feb-15 06:00N 58°18' W 001°42'0 0.0 200 10.8 5.4 2.1
2018-Feb-15 05:00N 58°18' W 001°42'0 0.0 200 10.8 5.7 2.4
2018-Feb-15 04:00N 58°18' W 001°42'0 0.0 190 10.8 5.6 2.5
2018-Feb-15 03:00N 58°18' W 001°42'0 0.0 190 5.4 6.0 3.0
2018-Feb-15 02:00N 58°18' W 001°42'0 0.0 200 10.8 5.8 3.1
2018-Feb-15 01:00N 58°18' W 001°42'0 0.0 200 5.4 5.8 3.3
2018-Feb-15 00:00N 58°18' W 001°42'0 0.0 190 5.4 6.0 3.6
2018-Feb-14 23:00N 58°18' W 001°42'0 0.0 200 5.4 6.0 3.7
2018-Feb-14 22:00N 58°18' W 001°42'0 0.0 200 5.4 5.8 3.8
2018-Feb-14 21:00N 58°18' W 001°42'0 0.0 200 5.4 5.7 3.7
2018-Feb-14 20:00N 58°18' W 001°42'0 0.0 190 5.4 5.7 3.4
2018-Feb-14 19:00N 58°18' W 001°42'0 0.0 190 2.2 5.7 3.3
2018-Feb-14 18:00N 58°18' W 001°42'0 0.0 180 5.4 5.6 3.2
2018-Feb-14 17:00N 58°18' W 001°42'0 0.0 180 5.4 5.3 2.8
2018-Feb-14 16:00N 58°18' W 001°42'0 0.0 170 10.8 4.7 2.3
2018-Feb-14 15:00N 58°18' W 001°42'0 0.0 170 5.4 3.9 1.3
2018-Feb-14 14:00N 58°18' W 001°42'0 0.0 180 1.1 4.4 0.4
2018-Feb-14 13:00N 58°18' W 001°42'0 0.0 180 5.4 5.2 1.2
2018-Feb-14 12:00N 58°18' W 001°42'0 0.0 170 2.2 5.3 1.1
2018-Feb-14 11:00N 58°18' W 001°42'0 0.0 170 10.8 5.1 1.1
2018-Feb-14 10:00N 58°18' W 001°42'0 0.0 160 5.4 5.1 1.2
2018-Feb-14 09:00N 58°18' W 001°42'0 0.0 170 10.8 5.1 1.3
2018-Feb-14 08:00N 58°18' W 001°42'0 0.0 170 10.8 4.9 1.2
2018-Feb-14 07:00N 58°18' W 001°42'0 0.0 180 10.8 4.6 0.9
2018-Feb-14 06:00N 58°18' W 001°42'0 0.0 170 10.8 4.5 0.8
2018-Feb-14 05:00N 58°18' W 001°42'0 0.0 190 10.8 4.0 0.5
2018-Feb-14 04:00N 58°18' W 001°42'0 0.0
2018-Feb-14 03:00N 58°18' W 001°42'0 0.0 190 10.8 3.8 0.2
2018-Feb-14 02:00N 58°18' W 001°42'0 0.0 200 10.8 3.6-0.0
2018-Feb-14 01:00N 58°18' W 001°42'0 0.0 190 10.8 3.6-0.0
2018-Feb-14 00:00N 58°18' W 001°42'0 0.0 210 10.8 3.8 0.2
2018-Feb-13 23:00N 58°18' W 001°42'0 0.0 210 10.8 3.4-0.2
2018-Feb-13 22:00N 58°18' W 001°42'0 0.0 230 10.8 3.8 0.2
2018-Feb-13 21:00N 58°18' W 001°42'0 0.0 240 10.8 3.8 0.3
2018-Feb-13 20:00N 58°18' W 001°42'0 0.0 240 10.8 4.1 0.6
2018-Feb-13 19:00N 58°18' W 001°42'0 0.0 240 10.8 4.0 0.4
2018-Feb-13 18:00N 58°18' W 001°42'0 0.0 260 10.8 4.0 0.2
2018-Feb-13 17:00N 58°18' W 001°42'0 0.0 260 10.8 4.1 0.5
2018-Feb-13 16:00N 58°18' W 001°42'0 0.0 270 10.8 4.0 1.0
2018-Feb-13 15:00N 58°18' W 001°42'0 0.0 260 10.8 3.1 1.3
2018-Feb-13 14:00N 58°18' W 001°42'0 0.0 240 10.8 2.4 0.6
2018-Feb-13 13:00N 58°18' W 001°42'0 0.0 280 10.8 4.0 1.6
2018-Feb-13 12:00N 58°18' W 001°42'0 0.0 220 10.8 3.6 1.5
2018-Feb-13 11:00N 58°18' W 001°42'0 0.0 210 10.8 4.3 2.2
2018-Feb-13 10:00N 58°18' W 001°42'0 0.0 200 2.2 4.0 1.8
2018-Feb-13 09:00N 58°18' W 001°42'0 0.0 190 0.5 4.4 1.3
2018-Feb-13 08:00N 58°18' W 001°42'0 0.0 170 1.1 5.1 1.7
2018-Feb-13 07:00N 58°18' W 001°42'0 0.0 170 5.4 5.5 1.7
2018-Feb-13 06:00N 58°18' W 001°42'0 0.0 170 10.8 5.3 1.6
2018-Feb-13 05:00N 58°18' W 001°42'0 0.0 170 5.4 5.2 1.6
2018-Feb-13 04:00N 58°18' W 001°42'0 0.0 180 10.8 5.2 1.3
2018-Feb-13 03:00N 58°18' W 001°42'0 0.0 170 10.8 5.1 1.4
2018-Feb-13 02:00N 58°18' W 001°42'0 0.0 170 10.8 5.0 1.0
2018-Feb-13 01:00N 58°18' W 001°42'0 0.0 180 10.8 4.7 0.6
2018-Feb-13 00:00N 58°18' W 001°42'0 0.0 190 10.8 4.0-0.0
2018-Feb-12 23:00N 58°18' W 001°42'0 0.0 190 10.8 3.8-0.4
2018-Feb-12 22:00N 58°18' W 001°42'0 0.0 190 10.8 4.0-0.2
2018-Feb-12 21:00N 58°18' W 001°42'0 0.0 190 10.8 4.2-0.1
2018-Feb-12 20:00N 58°18' W 001°42'0 0.0 230 10.8 4.4 0.4
2018-Feb-12 19:00N 58°18' W 001°42'0 0.0 230 10.8 4.6 0.6
2018-Feb-12 18:00N 58°18' W 001°42'0 0.0 240 10.8 4.6 0.7
2018-Feb-12 17:00N 58°18' W 001°42'0 0.0 240 10.8 4.7 0.9
2018-Feb-12 16:00N 58°18' W 001°42'0 0.0 240 10.8 4.9 1.0
2018-Feb-12 15:00N 58°18' W 001°42'0 0.0 250 10.8 5.0 1.3
2018-Feb-12 14:00N 58°18' W 001°42'0 0.0 250 10.8 4.4 0.7
2018-Feb-12 13:00N 58°18' W 001°42'0 0.0 250 10.8 4.6 0.8
2018-Feb-12 12:00N 58°18' W 001°42'0 0.0 270 10.8 4.5 0.9
2018-Feb-12 11:00N 58°18' W 001°42'0 0.0 250 10.8 4.1 0.5
2018-Feb-12 10:00N 58°18' W 001°42'0 0.0 240 10.8 3.4-0.1
2018-Feb-12 09:00N 58°18' W 001°42'0 0.0 240 10.8 3.2-0.3
2018-Feb-12 08:00N 58°18' W 001°42'0 0.0 240 10.8 3.1-0.4
2018-Feb-12 07:00N 58°18' W 001°42'0 0.0 260 10.8 2.9-0.5
2018-Feb-12 06:00N 58°18' W 001°42'0 0.0 270 10.8 2.3-0.8
2018-Feb-12 05:00N 58°18' W 001°42'0 0.0 290 10.8 2.3-1.2
2018-Feb-12 04:00N 58°18' W 001°42'0 0.0 260 10.8 2.6-0.9
2018-Feb-12 03:00N 58°18' W 001°42'0 0.0 260 10.8 2.2-1.2
2018-Feb-12 02:00N 58°18' W 001°42'0 0.0 270 10.8 3.0-0.6
2018-Feb-12 01:00N 58°18' W 001°42'0 0.0 270 10.8 2.6-0.8
2018-Feb-12 00:00N 58°18' W 001°42'0 0.0 290 2.2 2.8-0.9
2018-Feb-11 23:00N 58°18' W 001°42'0 0.0 280 10.8 2.4-0.9
2018-Feb-11 22:00N 58°18' W 001°42'0 0.0 290 10.8 2.3-0.8
2018-Feb-11 21:00N 58°18' W 001°42'0 0.0 330 0.1 2.1-1.8
2018-Feb-11 20:00N 58°18' W 001°42'0 0.0 290 10.8 2.8-1.1
2018-Feb-11 19:00N 58°18' W 001°42'0 0.0 300 10.8 2.8-0.3
2018-Feb-11 18:00N 58°18' W 001°42'0 0.0 320 10.8 3.6 0.2
2018-Feb-11 17:00N 58°18' W 001°42'0 0.0 320 10.8 3.3-0.7
2018-Feb-11 16:00N 58°18' W 001°42'0 0.0 310 10.8 3.4-0.4
2018-Feb-11 15:00N 58°18' W 001°42'0 0.0 280 2.2 4.0 0.4
2018-Feb-11 14:00N 58°18' W 001°42'0 0.0 280 10.8 3.6 0.3
2018-Feb-11 13:00N 58°18' W 001°42'0 0.0 290 10.8 3.6 0.1
2018-Feb-11 12:00N 58°18' W 001°42'0 0.0 300 10.8 3.9 0.4
2018-Feb-11 11:00N 58°18' W 001°42'0 0.0 280 10.8 4.2 1.9
2018-Feb-11 10:00N 58°18' W 001°42'0 0.0 290 10.8 4.4 0.9
2018-Feb-11 09:00N 58°18' W 001°42'0 0.0 290 10.8 4.3 0.7
2018-Feb-11 08:00N 58°18' W 001°42'0 0.0 330 10.8 4.4 0.6
2018-Feb-11 07:00N 58°18' W 001°42'0 0.0 330 10.8 4.7 1.0
2018-Feb-11 06:00N 58°18' W 001°42'0 0.0 320 10.8 5.6 1.9
2018-Feb-11 05:00N 58°18' W 001°42'0 0.0 330 10.8 5.1 1.1
2018-Feb-11 04:00N 58°18' W 001°42'0 0.0 320 10.8 5.3 1.6
2018-Feb-11 03:00N 58°18' W 001°42'0 0.0 330 10.8 5.6 2.2
2018-Feb-11 02:00N 58°18' W 001°42'0 0.0 320 10.8 5.2 2.2
2018-Feb-11 01:00N 58°18' W 001°42'0 0.0 330 10.8 4.7 1.6
2018-Feb-11 00:00N 58°18' W 001°42'0 0.0 340 10.8 4.3 1.4
2018-Feb-10 23:00N 58°18' W 001°42'0 0.0 320 10.8 5.1 1.6
2018-Feb-10 22:00N 58°18' W 001°42'0 0.0 290 10.8 5.3 1.8
2018-Feb-10 21:00N 58°18' W 001°42'0 0.0 290 10.8 5.7 2.0
2018-Feb-10 20:00N 58°18' W 001°42'0 0.0 270 10.8 6.0 2.1
2018-Feb-10 19:00N 58°18' W 001°42'0 0.0 260 10.8 5.9 2.3
2018-Feb-10 18:00N 58°18' W 001°42'0 0.0 10.8
2018-Feb-10 17:00N 58°18' W 001°42'0 0.0 260 10.8 6.3 2.7
2018-Feb-10 16:00N 58°18' W 001°42'0 0.0 260 10.8 6.5 3.1
2018-Feb-10 15:00N 58°18' W 001°42'0 0.0 240 10.8 6.8 3.6
2018-Feb-10 14:00N 58°18' W 001°42'0 0.0 240 10.8 6.7 3.7
2018-Feb-10 13:00N 58°18' W 001°42'0 0.0 230 10.8 6.3 3.6
2018-Feb-10 12:00N 58°18' W 001°42'0 0.0 230 10.8 5.6 3.0
2018-Feb-10 11:00N 58°18' W 001°42'0 0.0 210 10.8 5.1 2.4
2018-Feb-10 10:00N 58°18' W 001°42'0 0.0 200 10.8 5.1 2.3
2018-Feb-10 09:00N 58°18' W 001°42'0 0.0 190 5.4 5.0 2.0
2018-Feb-10 08:00N 58°18' W 001°42'0 0.0 190 5.4 4.9 1.9
2018-Feb-10 07:00N 58°18' W 001°42'0 0.0 180 0.5 4.5 1.3
2018-Feb-10 06:00N 58°18' W 001°42'0 0.0 180 10.8 3.9 0.5
2018-Feb-10 05:00N 58°18' W 001°42'0 0.0 180 10.8 3.9-0.0
2018-Feb-10 04:00N 58°18' W 001°42'0 0.0 190 10.8 4.3 0.2
2018-Feb-10 03:00N 58°18' W 001°42'0 0.0 170 10.8 4.1-0.0
2018-Feb-10 02:00N 58°18' W 001°42'0 0.0 180 10.8 4.4 0.5
2018-Feb-10 01:00N 58°18' W 001°42'0 0.0 200 10.8 4.4 0.6
2018-Feb-10 00:00N 58°18' W 001°42'0 0.0 200 10.8 3.8 0.1
2018-Feb-09 23:00N 58°18' W 001°42'0 0.0 230 10.8 4.1 0.4
2018-Feb-09 22:00N 58°18' W 001°42'0 0.0 240 10.8 4.3 0.4
2018-Feb-09 21:00N 58°18' W 001°42'0 0.0 260 10.8 4.4 0.7
2018-Feb-09 20:00N 58°18' W 001°42'0 0.0 260 10.8 4.2 0.6
2018-Feb-09 19:00N 58°18' W 001°42'0 0.0 260 10.8 4.4 0.7
2018-Feb-09 18:00N 58°18' W 001°42'0 0.0 250 10.8 4.5 0.8
2018-Feb-09 17:00N 58°18' W 001°42'0 0.0 260 10.8 4.4 0.8
2018-Feb-09 16:00N 58°18' W 001°42'0 0.0 260 10.8 4.5 0.9
2018-Feb-09 15:00N 58°18' W 001°42'0 0.0 270 10.8 4.6 0.8
2018-Feb-09 14:00N 58°18' W 001°42'0 0.0 270 10.8 4.4 0.4
2018-Feb-09 13:00N 58°18' W 001°42'0 0.0 270 4.3 0.6
2018-Feb-09 12:00N 58°18' W 001°42'0 0.0 280 5.4 3.9 1.6
2018-Feb-09 11:00N 58°18' W 001°42'0 0.0 290 10.8 3.1 0.4
2018-Feb-09 10:00N 58°18' W 001°42'0 0.0 300 10.8 4.0 1.1
2018-Feb-09 09:00N 58°18' W 001°42'0 0.0 270 10.8 4.1 1.1
2018-Feb-09 08:00N 58°18' W 001°42'0 0.0 290 10.8 4.3 1.3
2018-Feb-09 07:00N 58°18' W 001°42'0 0.0 280 10.8 4.3 0.9
2018-Feb-09 06:00N 58°18' W 001°42'0 0.0 290 10.8 4.4 1.0
2018-Feb-09 05:00N 58°18' W 001°42'0 0.0 280 10.8 4.5 1.1
2018-Feb-09 04:00N 58°18' W 001°42'0 0.0 280 10.8 5.0 1.5
2018-Feb-09 03:00N 58°18' W 001°42'0 0.0 270 10.8 5.8 2.4
2018-Feb-09 02:00N 58°18' W 001°42'0 0.0 240 10.8 5.9 2.8
2018-Feb-09 01:00N 58°18' W 001°42'0 0.0 210 10.8 6.3 3.4
2018-Feb-09 00:00N 58°18' W 001°42'0 0.0 190 10.8 6.0 3.2
2018-Feb-08 23:00N 58°18' W 001°42'   180 10.8 6.0 3.2
Track history (hours):
 
Tides and Currents Weather Stations Pressure Air Temp Water Temp Dewpoint Dewpoint Depression Visibility Wind Speed Wind Dir Waves Ship Positions

Callsign MVGF4 (name unknown)

Last reported at 2018-Feb-18 23:00 UTC. Time now 2018-Feb-19 00:04 UTC.
Position N 58°18' W 001°42'.

Wind from 140

Air temperature 6.1 ° C
Visibility: greater than 10.8 NM
Dewpoint 4.2 ° C

Date/timePositionNaut miles runAvg speedWind from/ knotsBaromVisibWave heightAir tempDewpointWater temp
2018-Feb-18 23:00N 58°18' W 001°42'0 0.0 140 10.8 6.1 4.2
2018-Feb-18 22:00N 58°18' W 001°42'0 0.0 140 10.8 6.2 3.9
2018-Feb-18 21:00N 58°18' W 001°42'0 0.0 140 10.8 5.8 3.5
2018-Feb-18 20:00N 58°18' W 001°42'0 0.0 150 10.8 5.8 3.2
2018-Feb-18 19:00N 58°18' W 001°42'0 0.0 170 10.8 6.0 3.1
2018-Feb-18 18:00N 58°18' W 001°42'0 0.0 170 10.8 6.3 3.1
2018-Feb-18 17:00N 58°18' W 001°42'0 0.0 170 10.8 6.0 2.8
2018-Feb-18 16:00N 58°18' W 001°42'0 0.0 160 10.8 6.0 2.6
2018-Feb-18 15:00N 58°18' W 001°42'0 0.0 170 10.8 6.0 2.6
2018-Feb-18 14:00N 58°18' W 001°42'0 0.0 170 10.8 6.4 2.8
2018-Feb-18 13:00N 58°18' W 001°42'0 0.0 170 10.8 6.6 3.3
2018-Feb-18 12:00N 58°18' W 001°42'0 0.0 190 10.8 6.0 3.0
2018-Feb-18 11:00N 58°18' W 001°42'0 0.0 180 10.8 6.1 3.2
2018-Feb-18 10:00N 58°18' W 001°42'0 0.0 180 10.8 5.8 3.1
2018-Feb-18 09:00N 58°18' W 001°42'0 0.0 190 10.8 5.1 2.8
2018-Feb-18 08:00N 58°18' W 001°42'0 0.0 200 10.8 5.3 2.9
2018-Feb-18 07:00N 58°18' W 001°42'0 0.0 250 10.8 5.2 2.8
2018-Feb-18 06:00N 58°18' W 001°42'0 0.0 240 10.8 5.5 3.0
2018-Feb-18 05:00N 58°18' W 001°42'0 0.0 260 10.8 5.4 2.7
2018-Feb-18 04:00N 58°18' W 001°42'0 0.0 260 10.8 5.4 2.7
2018-Feb-18 03:00N 58°18' W 001°42'0 0.0 250 10.8 5.5 2.5
2018-Feb-18 02:00N 58°18' W 001°42'0 0.0 260 10.8 5.5 2.4
2018-Feb-18 01:00N 58°18' W 001°42'0 0.0 270 10.8 5.5 2.1
2018-Feb-18 00:00N 58°18' W 001°42'0 0.0 260 10.8 5.7 2.2
2018-Feb-17 23:00N 58°18' W 001°42'0 0.0 260 10.8 5.7 2.1
2018-Feb-17 22:00N 58°18' W 001°42'0 0.0 260 10.8 5.9 2.3
2018-Feb-17 21:00N 58°18' W 001°42'0 0.0 260 10.8 6.0 2.1
2018-Feb-17 20:00N 58°18' W 001°42'0 0.0 250 10.8 6.2 2.1
2018-Feb-17 19:00N 58°18' W 001°42'0 0.0 250 10.8 6.4 2.5
2018-Feb-17 18:00N 58°18' W 001°42'0 0.0 250 10.8 6.2 2.3
2018-Feb-17 17:00N 58°18' W 001°42'0 0.0 240 10.8 6.1 2.3
2018-Feb-17 16:00N 58°18' W 001°42'0 0.0 260 10.8 6.4 2.7
2018-Feb-17 15:00N 58°18' W 001°42'0 0.0 260 10.8 6.3 2.9
2018-Feb-17 14:00N 58°18' W 001°42'0 0.0 240 10.8 6.2 2.9
2018-Feb-17 13:00N 58°18' W 001°42'0 0.0 230 10.8 6.2 2.9
2018-Feb-17 12:00N 58°18' W 001°42'0 0.0 200 10.8 6.0 3.0
2018-Feb-17 11:00N 58°18' W 001°42'0 0.0 190 10.8 5.7 3.0
2018-Feb-17 10:00N 58°18' W 001°42'0 0.0 190 10.8 5.9 3.3
2018-Feb-17 09:00N 58°18' W 001°42'0 0.0 220 10.8 6.0 3.4
2018-Feb-17 08:00N 58°18' W 001°42'0 0.0 210 10.8 5.7 3.2
2018-Feb-17 07:00N 58°18' W 001°42'0 0.0 210 10.8 5.7 3.0
2018-Feb-17 06:00N 58°18' W 001°42'0 0.0 210 10.8 5.9 3.1
2018-Feb-17 05:00N 58°18' W 001°42'0 0.0 230 10.8 6.0 3.2
2018-Feb-17 04:00N 58°18' W 001°42'0 0.0 200 10.8 6.1 3.2
2018-Feb-17 03:00N 58°18' W 001°42'0 0.0 200 10.8 6.2 3.2
2018-Feb-17 02:00N 58°18' W 001°42'0 0.0 190 10.8 6.5 3.1
2018-Feb-17 01:00N 58°18' W 001°42'0 0.0 190 10.8 6.5 3.0
2018-Feb-17 00:00N 58°18' W 001°42'0 0.0 190 10.8 6.7 3.2
2018-Feb-16 23:00N 58°18' W 001°42'0 0.0 180 10.8 6.9 3.3
2018-Feb-16 22:00N 58°18' W 001°42'0 0.0 190 10.8 6.8 3.3
2018-Feb-16 21:00N 58°18' W 001°42'0 0.0 200 10.8 6.6 3.0
2018-Feb-16 20:00N 58°18' W 001°42'0 0.0 210 10.8 6.3 2.6
2018-Feb-16 19:00N 58°18' W 001°42'0 0.0 210 10.8 6.2 2.5
2018-Feb-16 18:00N 58°18' W 001°42'0 0.0 220 10.8 6.5 2.7
2018-Feb-16 17:00N 58°18' W 001°42'0 0.0 180 10.8 6.5 2.6
2018-Feb-16 16:00N 58°18' W 001°42'0 0.0 220 10.8 6.5 2.4
2018-Feb-16 15:00N 58°18' W 001°42'0 0.0 240 10.8 6.2 1.9
2018-Feb-16 14:00N 58°18' W 001°42'0 0.0
2018-Feb-16 13:00N 58°18' W 001°42'0 0.0 240 10.8
2018-Feb-16 12:00N 58°18' W 001°42'0 0.0 240 10.8 5.9 2.1
2018-Feb-16 11:00N 58°18' W 001°42'0 0.0 240 10.8 5.8 2.2
2018-Feb-16 10:00N 58°18' W 001°42'0 0.0 240 10.8 5.3 1.8
2018-Feb-16 09:00N 58°18' W 001°42'0 0.0 250 10.8 5.3 1.7
2018-Feb-16 08:00N 58°18' W 001°42'0 0.0 240 10.8 5.0 1.8
2018-Feb-16 07:00N 58°18' W 001°42'0 0.0 250 10.8 5.1 1.9
2018-Feb-16 06:00N 58°18' W 001°42'0 0.0 250 10.8 5.0 1.9
2018-Feb-16 05:00N 58°18' W 001°42'0 0.0 250 10.8 5.1 2.0
2018-Feb-16 04:00N 58°18' W 001°42'0 0.0 250 10.8 5.1 2.0
2018-Feb-16 03:00N 58°18' W 001°42'0 0.0 250 10.8 5.1 2.3
2018-Feb-16 02:00N 58°18' W 001°42'0 0.0 250 10.8 5.4 2.4
2018-Feb-16 01:00N 58°18' W 001°42'0 0.0 250 10.8 5.5 2.5
2018-Feb-16 00:00N 58°18' W 001°42'0 0.0 250 10.8 5.6 2.5
2018-Feb-15 23:00N 58°18' W 001°42'0 0.0 250 10.8 5.8 2.6
2018-Feb-15 22:00N 58°18' W 001°42'0 0.0 250 10.8 5.8 2.5
2018-Feb-15 21:00N 58°18' W 001°42'0 0.0 260 10.8 5.8 2.4
2018-Feb-15 20:00N 58°18' W 001°42'0 0.0 250 10.8 6.0 2.6
2018-Feb-15 19:00N 58°18' W 001°42'0 0.0 250 10.8 6.1 2.5
2018-Feb-15 18:00N 58°18' W 001°42'0 0.0 240 10.8 6.1 2.5
2018-Feb-15 17:00N 58°18' W 001°42'0 0.0 240 10.8 6.0 2.4
2018-Feb-15 16:00N 58°18' W 001°42'0 0.0 230 2.2 6.1 2.2
2018-Feb-15 15:00N 58°18' W 001°42'0 0.0 220 10.8 5.8 2.0
2018-Feb-15 14:00N 58°18' W 001°42'0 0.0 230 10.8 6.0 2.3
2018-Feb-15 13:00N 58°18' W 001°42'0 0.0 240 10.8 6.0 2.2
2018-Feb-15 12:00N 58°18' W 001°42'0 0.0 220 10.8 5.7 1.6
2018-Feb-15 11:00N 58°18' W 001°42'0 0.0 220 10.8 5.3 1.2
2018-Feb-15 10:00N 58°18' W 001°42'0 0.0 220 10.8 4.9 0.8
2018-Feb-15 09:00N 58°18' W 001°42'0 0.0 220 10.8 4.9 0.9
2018-Feb-15 08:00N 58°18' W 001°42'0 0.0 200 10.8 5.0 1.2
2018-Feb-15 07:00N 58°18' W 001°42'0 0.0 210 10.8 5.1 1.4
2018-Feb-15 06:00N 58°18' W 001°42'0 0.0 200 10.8 5.4 2.1
2018-Feb-15 05:00N 58°18' W 001°42'0 0.0 200 10.8 5.7 2.4
2018-Feb-15 04:00N 58°18' W 001°42'0 0.0 190 10.8 5.6 2.5
2018-Feb-15 03:00N 58°18' W 001°42'0 0.0 190 5.4 6.0 3.0
2018-Feb-15 02:00N 58°18' W 001°42'0 0.0 200 10.8 5.8 3.1
2018-Feb-15 01:00N 58°18' W 001°42'0 0.0 200 5.4 5.8 3.3
2018-Feb-15 00:00N 58°18' W 001°42'0 0.0 190 5.4 6.0 3.6
2018-Feb-14 23:00N 58°18' W 001°42'0 0.0 200 5.4 6.0 3.7
2018-Feb-14 22:00N 58°18' W 001°42'0 0.0 200 5.4 5.8 3.8
2018-Feb-14 21:00N 58°18' W 001°42'0 0.0 200 5.4 5.7 3.7
2018-Feb-14 20:00N 58°18' W 001°42'0 0.0 190 5.4 5.7 3.4
2018-Feb-14 19:00N 58°18' W 001°42'0 0.0 190 2.2 5.7 3.3
2018-Feb-14 18:00N 58°18' W 001°42'0 0.0 180 5.4 5.6 3.2
2018-Feb-14 17:00N 58°18' W 001°42'0 0.0 180 5.4 5.3 2.8
2018-Feb-14 16:00N 58°18' W 001°42'0 0.0 170 10.8 4.7 2.3
2018-Feb-14 15:00N 58°18' W 001°42'0 0.0 170 5.4 3.9 1.3
2018-Feb-14 14:00N 58°18' W 001°42'0 0.0 180 1.1 4.4 0.4
2018-Feb-14 13:00N 58°18' W 001°42'0 0.0 180 5.4 5.2 1.2
2018-Feb-14 12:00N 58°18' W 001°42'0 0.0 170 2.2 5.3 1.1
2018-Feb-14 11:00N 58°18' W 001°42'0 0.0 170 10.8 5.1 1.1
2018-Feb-14 10:00N 58°18' W 001°42'0 0.0 160 5.4 5.1 1.2
2018-Feb-14 09:00N 58°18' W 001°42'0 0.0 170 10.8 5.1 1.3
2018-Feb-14 08:00N 58°18' W 001°42'0 0.0 170 10.8 4.9 1.2
2018-Feb-14 07:00N 58°18' W 001°42'0 0.0 180 10.8 4.6 0.9
2018-Feb-14 06:00N 58°18' W 001°42'0 0.0 170 10.8 4.5 0.8
2018-Feb-14 05:00N 58°18' W 001°42'0 0.0 190 10.8 4.0 0.5
2018-Feb-14 04:00N 58°18' W 001°42'0 0.0
2018-Feb-14 03:00N 58°18' W 001°42'0 0.0 190 10.8 3.8 0.2
2018-Feb-14 02:00N 58°18' W 001°42'0 0.0 200 10.8 3.6-0.0
2018-Feb-14 01:00N 58°18' W 001°42'0 0.0 190 10.8 3.6-0.0
2018-Feb-14 00:00N 58°18' W 001°42'0 0.0 210 10.8 3.8 0.2
2018-Feb-13 23:00N 58°18' W 001°42'0 0.0 210 10.8 3.4-0.2
2018-Feb-13 22:00N 58°18' W 001°42'0 0.0 230 10.8 3.8 0.2
2018-Feb-13 21:00N 58°18' W 001°42'0 0.0 240 10.8 3.8 0.3
2018-Feb-13 20:00N 58°18' W 001°42'0 0.0 240 10.8 4.1 0.6
2018-Feb-13 19:00N 58°18' W 001°42'0 0.0 240 10.8 4.0 0.4
2018-Feb-13 18:00N 58°18' W 001°42'0 0.0 260 10.8 4.0 0.2
2018-Feb-13 17:00N 58°18' W 001°42'0 0.0 260 10.8 4.1 0.5
2018-Feb-13 16:00N 58°18' W 001°42'0 0.0 270 10.8 4.0 1.0
2018-Feb-13 15:00N 58°18' W 001°42'0 0.0 260 10.8 3.1 1.3
2018-Feb-13 14:00N 58°18' W 001°42'0 0.0 240 10.8 2.4 0.6
2018-Feb-13 13:00N 58°18' W 001°42'0 0.0 280 10.8 4.0 1.6
2018-Feb-13 12:00N 58°18' W 001°42'0 0.0 220 10.8 3.6 1.5
2018-Feb-13 11:00N 58°18' W 001°42'0 0.0 210 10.8 4.3 2.2
2018-Feb-13 10:00N 58°18' W 001°42'0 0.0 200 2.2 4.0 1.8
2018-Feb-13 09:00N 58°18' W 001°42'0 0.0 190 0.5 4.4 1.3
2018-Feb-13 08:00N 58°18' W 001°42'0 0.0 170 1.1 5.1 1.7
2018-Feb-13 07:00N 58°18' W 001°42'0 0.0 170 5.4 5.5 1.7
2018-Feb-13 06:00N 58°18' W 001°42'0 0.0 170 10.8 5.3 1.6
2018-Feb-13 05:00N 58°18' W 001°42'0 0.0 170 5.4 5.2 1.6
2018-Feb-13 04:00N 58°18' W 001°42'0 0.0 180 10.8 5.2 1.3
2018-Feb-13 03:00N 58°18' W 001°42'0 0.0 170 10.8 5.1 1.4
2018-Feb-13 02:00N 58°18' W 001°42'0 0.0 170 10.8 5.0 1.0
2018-Feb-13 01:00N 58°18' W 001°42'0 0.0 180 10.8 4.7 0.6
2018-Feb-13 00:00N 58°18' W 001°42'0 0.0 190 10.8 4.0-0.0
2018-Feb-12 23:00N 58°18' W 001°42'0 0.0 190 10.8 3.8-0.4
2018-Feb-12 22:00N 58°18' W 001°42'0 0.0 190 10.8 4.0-0.2
2018-Feb-12 21:00N 58°18' W 001°42'0 0.0 190 10.8 4.2-0.1
2018-Feb-12 20:00N 58°18' W 001°42'0 0.0 230 10.8 4.4 0.4
2018-Feb-12 19:00N 58°18' W 001°42'0 0.0 230 10.8 4.6 0.6
2018-Feb-12 18:00N 58°18' W 001°42'0 0.0 240 10.8 4.6 0.7
2018-Feb-12 17:00N 58°18' W 001°42'0 0.0 240 10.8 4.7 0.9
2018-Feb-12 16:00N 58°18' W 001°42'0 0.0 240 10.8 4.9 1.0
2018-Feb-12 15:00N 58°18' W 001°42'0 0.0 250 10.8 5.0 1.3
2018-Feb-12 14:00N 58°18' W 001°42'0 0.0 250 10.8 4.4 0.7
2018-Feb-12 13:00N 58°18' W 001°42'0 0.0 250 10.8 4.6 0.8
2018-Feb-12 12:00N 58°18' W 001°42'0 0.0 270 10.8 4.5 0.9
2018-Feb-12 11:00N 58°18' W 001°42'0 0.0 250 10.8 4.1 0.5
2018-Feb-12 10:00N 58°18' W 001°42'0 0.0 240 10.8 3.4-0.1
2018-Feb-12 09:00N 58°18' W 001°42'0 0.0 240 10.8 3.2-0.3
2018-Feb-12 08:00N 58°18' W 001°42'0 0.0 240 10.8 3.1-0.4
2018-Feb-12 07:00N 58°18' W 001°42'0 0.0 260 10.8 2.9-0.5
2018-Feb-12 06:00N 58°18' W 001°42'0 0.0 270 10.8 2.3-0.8
2018-Feb-12 05:00N 58°18' W 001°42'0 0.0 290 10.8 2.3-1.2
2018-Feb-12 04:00N 58°18' W 001°42'0 0.0 260 10.8 2.6-0.9
2018-Feb-12 03:00N 58°18' W 001°42'0 0.0 260 10.8 2.2-1.2
2018-Feb-12 02:00N 58°18' W 001°42'0 0.0 270 10.8 3.0-0.6
2018-Feb-12 01:00N 58°18' W 001°42'0 0.0 270 10.8 2.6-0.8
2018-Feb-12 00:00N 58°18' W 001°42'0 0.0 290 2.2 2.8-0.9
2018-Feb-11 23:00N 58°18' W 001°42'0 0.0 280 10.8 2.4-0.9
2018-Feb-11 22:00N 58°18' W 001°42'0 0.0 290 10.8 2.3-0.8
2018-Feb-11 21:00N 58°18' W 001°42'0 0.0 330 0.1 2.1-1.8
2018-Feb-11 20:00N 58°18' W 001°42'0 0.0 290 10.8 2.8-1.1
2018-Feb-11 19:00N 58°18' W 001°42'0 0.0 300 10.8 2.8-0.3
2018-Feb-11 18:00N 58°18' W 001°42'0 0.0 320 10.8 3.6 0.2
2018-Feb-11 17:00N 58°18' W 001°42'0 0.0 320 10.8 3.3-0.7
2018-Feb-11 16:00N 58°18' W 001°42'0 0.0 310 10.8 3.4-0.4
2018-Feb-11 15:00N 58°18' W 001°42'0 0.0 280 2.2 4.0 0.4
2018-Feb-11 14:00N 58°18' W 001°42'0 0.0 280 10.8 3.6 0.3
2018-Feb-11 13:00N 58°18' W 001°42'0 0.0 290 10.8 3.6 0.1
2018-Feb-11 12:00N 58°18' W 001°42'0 0.0 300 10.8 3.9 0.4
2018-Feb-11 11:00N 58°18' W 001°42'0 0.0 280 10.8 4.2 1.9
2018-Feb-11 10:00N 58°18' W 001°42'0 0.0 290 10.8 4.4 0.9
2018-Feb-11 09:00N 58°18' W 001°42'0 0.0 290 10.8 4.3 0.7
2018-Feb-11 08:00N 58°18' W 001°42'0 0.0 330 10.8 4.4 0.6
2018-Feb-11 07:00N 58°18' W 001°42'0 0.0 330 10.8 4.7 1.0
2018-Feb-11 06:00N 58°18' W 001°42'0 0.0 320 10.8 5.6 1.9
2018-Feb-11 05:00N 58°18' W 001°42'0 0.0 330 10.8 5.1 1.1
2018-Feb-11 04:00N 58°18' W 001°42'0 0.0 320 10.8 5.3 1.6
2018-Feb-11 03:00N 58°18' W 001°42'0 0.0 330 10.8 5.6 2.2
2018-Feb-11 02:00N 58°18' W 001°42'0 0.0 320 10.8 5.2 2.2
2018-Feb-11 01:00N 58°18' W 001°42'0 0.0 330 10.8 4.7 1.6
2018-Feb-11 00:00N 58°18' W 001°42'0 0.0 340 10.8 4.3 1.4
2018-Feb-10 23:00N 58°18' W 001°42'0 0.0 320 10.8 5.1 1.6
2018-Feb-10 22:00N 58°18' W 001°42'0 0.0 290 10.8 5.3 1.8
2018-Feb-10 21:00N 58°18' W 001°42'0 0.0 290 10.8 5.7 2.0
2018-Feb-10 20:00N 58°18' W 001°42'0 0.0 270 10.8 6.0 2.1
2018-Feb-10 19:00N 58°18' W 001°42'0 0.0 260 10.8 5.9 2.3
2018-Feb-10 18:00N 58°18' W 001°42'0 0.0 10.8
2018-Feb-10 17:00N 58°18' W 001°42'0 0.0 260 10.8 6.3 2.7
2018-Feb-10 16:00N 58°18' W 001°42'0 0.0 260 10.8 6.5 3.1
2018-Feb-10 15:00N 58°18' W 001°42'0 0.0 240 10.8 6.8 3.6
2018-Feb-10 14:00N 58°18' W 001°42'0 0.0 240 10.8 6.7 3.7
2018-Feb-10 13:00N 58°18' W 001°42'0 0.0 230 10.8 6.3 3.6
2018-Feb-10 12:00N 58°18' W 001°42'0 0.0 230 10.8 5.6 3.0
2018-Feb-10 11:00N 58°18' W 001°42'0 0.0 210 10.8 5.1 2.4
2018-Feb-10 10:00N 58°18' W 001°42'0 0.0 200 10.8 5.1 2.3
2018-Feb-10 09:00N 58°18' W 001°42'0 0.0 190 5.4 5.0 2.0
2018-Feb-10 08:00N 58°18' W 001°42'0 0.0 190 5.4 4.9 1.9
2018-Feb-10 07:00N 58°18' W 001°42'0 0.0 180 0.5 4.5 1.3
2018-Feb-10 06:00N 58°18' W 001°42'0 0.0 180 10.8 3.9 0.5
2018-Feb-10 05:00N 58°18' W 001°42'0 0.0 180 10.8 3.9-0.0
2018-Feb-10 04:00N 58°18' W 001°42'0 0.0 190 10.8 4.3 0.2
2018-Feb-10 03:00N 58°18' W 001°42'0 0.0 170 10.8 4.1-0.0
2018-Feb-10 02:00N 58°18' W 001°42'0 0.0 180 10.8 4.4 0.5
2018-Feb-10 01:00N 58°18' W 001°42'0 0.0 200 10.8 4.4 0.6
2018-Feb-10 00:00N 58°18' W 001°42'0 0.0 200 10.8 3.8 0.1
2018-Feb-09 23:00N 58°18' W 001°42'0 0.0 230 10.8 4.1 0.4
2018-Feb-09 22:00N 58°18' W 001°42'0 0.0 240 10.8 4.3 0.4
2018-Feb-09 21:00N 58°18' W 001°42'0 0.0 260 10.8 4.4 0.7
2018-Feb-09 20:00N 58°18' W 001°42'0 0.0 260 10.8 4.2 0.6
2018-Feb-09 19:00N 58°18' W 001°42'0 0.0 260 10.8 4.4 0.7
2018-Feb-09 18:00N 58°18' W 001°42'0 0.0 250 10.8 4.5 0.8
2018-Feb-09 17:00N 58°18' W 001°42'0 0.0 260 10.8 4.4 0.8
2018-Feb-09 16:00N 58°18' W 001°42'0 0.0 260 10.8 4.5 0.9
2018-Feb-09 15:00N 58°18' W 001°42'0 0.0 270 10.8 4.6 0.8
2018-Feb-09 14:00N 58°18' W 001°42'0 0.0 270 10.8 4.4 0.4
2018-Feb-09 13:00N 58°18' W 001°42'0 0.0 270 4.3 0.6
2018-Feb-09 12:00N 58°18' W 001°42'0 0.0 280 5.4 3.9 1.6
2018-Feb-09 11:00N 58°18' W 001°42'0 0.0 290 10.8 3.1 0.4
2018-Feb-09 10:00N 58°18' W 001°42'0 0.0 300 10.8 4.0 1.1
2018-Feb-09 09:00N 58°18' W 001°42'0 0.0 270 10.8 4.1 1.1
2018-Feb-09 08:00N 58°18' W 001°42'0 0.0 290 10.8 4.3 1.3
2018-Feb-09 07:00N 58°18' W 001°42'0 0.0 280 10.8 4.3 0.9
2018-Feb-09 06:00N 58°18' W 001°42'0 0.0 290 10.8 4.4 1.0
2018-Feb-09 05:00N 58°18' W 001°42'0 0.0 280 10.8 4.5 1.1
2018-Feb-09 04:00N 58°18' W 001°42'0 0.0 280 10.8 5.0 1.5
2018-Feb-09 03:00N 58°18' W 001°42'0 0.0 270 10.8 5.8 2.4
2018-Feb-09 02:00N 58°18' W 001°42'0 0.0 240 10.8 5.9 2.8
2018-Feb-09 01:00N 58°18' W 001°42'0 0.0 210 10.8 6.3 3.4
2018-Feb-09 00:00N 58°18' W 001°42'0 0.0 190 10.8 6.0 3.2
2018-Feb-08 23:00N 58°18' W 001°42'   180 10.8 6.0 3.2

Dump ship's entire track history